createdAt,value
2018-12-25T00:00:35.242Z,102674.41
2018-12-25T00:03:01.045Z,102669.39
2018-12-25T00:05:26.811Z,102672.41
2018-12-25T00:07:52.579Z,102670.23
2018-12-25T00:10:18.336Z,102667.85
2018-12-25T00:12:44.131Z,102665.51
2018-12-25T00:15:09.910Z,102671.06
2018-12-25T00:17:35.699Z,102668.98
2018-12-25T00:20:01.472Z,102665.92
2018-12-25T00:22:27.305Z,102663.13
2018-12-25T00:24:53.084Z,102660.25
2018-12-25T00:27:18.884Z,102659.66
2018-12-25T00:29:44.661Z,102655.91
2018-12-25T00:32:10.552Z,102661.59
2018-12-25T00:34:36.339Z,102664.89
2018-12-25T00:37:02.921Z,102657.16
2018-12-25T00:39:28.730Z,102661.55
2018-12-25T00:41:54.518Z,102658.74
2018-12-25T00:44:20.564Z,102658.91
2018-12-25T00:46:46.713Z,102660.63
2018-12-25T00:49:14.897Z,102667.81
2018-12-25T00:51:40.796Z,102656.28
2018-12-25T00:54:06.570Z,102664.77
2018-12-25T00:57:03.434Z,102651.72
2018-12-25T00:59:01.180Z,102647.83
2018-12-25T01:01:27.171Z,102631.78
2018-12-25T01:03:53.484Z,102632.16
2018-12-25T01:06:19.387Z,102629.23
2018-12-25T01:08:46.164Z,102631.32
2018-12-25T01:11:12.082Z,102621.95
2018-12-25T01:13:41.173Z,102627.39
2018-12-25T01:16:06.925Z,102625.59
2018-12-25T01:18:32.726Z,102620.71
2018-12-25T01:20:58.641Z,102616.70
2018-12-25T01:23:26.204Z,102607.80
2018-12-25T01:25:52.088Z,102621.17
2018-12-25T01:28:17.825Z,102608.98
2018-12-25T01:30:43.582Z,102609.94
2018-12-25T01:33:10.062Z,102614.79
2018-12-25T01:35:35.855Z,102625.70
2018-12-25T01:38:01.627Z,102625.75
2018-12-25T01:40:27.512Z,102628.54
2018-12-25T01:42:53.301Z,102624.41
2018-12-25T01:45:19.082Z,102618.81
2018-12-25T01:47:44.843Z,102621.27
2018-12-25T01:50:31.355Z,102619.22
2018-12-25T01:52:57.524Z,102614.22
2018-12-25T01:55:23.344Z,102620.31
2018-12-25T01:57:49.127Z,102621.19
2018-12-25T02:00:14.909Z,102621.60
2018-12-25T02:02:40.667Z,102612.90
2018-12-25T02:05:06.488Z,102612.99
2018-12-25T02:07:32.263Z,102605.22
2018-12-25T02:09:58.038Z,102614.27
2018-12-25T02:12:23.828Z,102614.02
2018-12-25T02:14:49.623Z,102612.47
2018-12-25T02:17:15.391Z,102620.16
2018-12-25T02:19:41.530Z,102612.41
2018-12-25T02:22:07.285Z,102610.45
2018-12-25T02:24:33.096Z,102607.19
2018-12-25T02:26:58.882Z,102604.88
2018-12-25T02:29:24.649Z,102609.80
2018-12-25T02:31:50.434Z,102598.40
2018-12-25T02:34:16.223Z,102600.88
2018-12-25T02:36:41.980Z,102588.93
2018-12-25T02:39:07.748Z,102597.61
2018-12-25T02:41:33.631Z,102595.33
2018-12-25T02:43:59.406Z,102600.20
2018-12-25T02:46:25.205Z,102595.36
2018-12-25T02:48:50.971Z,102602.31
2018-12-25T02:51:16.746Z,102591.98
2018-12-25T02:53:42.527Z,102588.19
2018-12-25T02:56:08.315Z,102578.59
2018-12-25T02:58:34.085Z,102583.83
2018-12-25T03:00:59.862Z,102575.57
2018-12-25T03:03:25.652Z,102575.81
2018-12-25T03:05:52.369Z,102570.35
2018-12-25T03:08:18.130Z,102585.55
2018-12-25T03:10:44.111Z,102575.21
2018-12-25T03:13:09.844Z,102577.53
2018-12-25T03:15:35.649Z,102581.20
2018-12-25T03:18:01.418Z,102578.27
2018-12-25T03:20:47.108Z,102564.50
2018-12-25T03:23:13.191Z,102564.50
2018-12-25T03:25:39.026Z,102560.25
2018-12-25T03:28:04.787Z,102559.89
2018-12-25T03:30:30.978Z,102554.44
2018-12-25T03:32:56.712Z,102558.45
2018-12-25T03:35:22.488Z,102559.42
2018-12-25T03:37:48.339Z,102553.09
2018-12-25T03:40:14.178Z,102547.09
2018-12-25T03:42:39.973Z,102557.58
2018-12-25T03:45:05.749Z,102547.73
2018-12-25T03:47:31.534Z,102544.42
2018-12-25T03:49:57.306Z,102544.92
2018-12-25T03:52:23.122Z,102535.69
2018-12-25T03:54:48.876Z,102538.36
2018-12-25T03:57:14.668Z,102547.38
2018-12-25T03:59:40.431Z,102546.77
2018-12-25T04:02:06.588Z,102560.88
2018-12-25T04:04:32.454Z,102556.98
2018-12-25T04:06:58.232Z,102558.20
2018-12-25T04:09:24.020Z,102545.80
2018-12-25T04:11:49.811Z,102540.77
2018-12-25T04:14:15.594Z,102558.55
2018-12-25T04:16:41.385Z,102539.93
2018-12-25T04:19:07.164Z,102546.86
2018-12-25T04:21:32.942Z,102542.84
2018-12-25T04:23:58.702Z,102539.20
2018-12-25T04:26:24.487Z,102548.44
2018-12-25T04:28:50.269Z,102545.75
2018-12-25T04:31:16.048Z,102543.81
2018-12-25T04:33:41.842Z,102542.48
2018-12-25T04:36:07.622Z,102540.77
2018-12-25T04:38:33.417Z,102537.02
2018-12-25T04:40:59.189Z,102531.66
2018-12-25T04:43:24.966Z,102523.96
2018-12-25T04:45:50.733Z,102520.08
2018-12-25T04:48:16.507Z,102510.60
2018-12-25T04:50:42.271Z,102503.41
2018-12-25T04:53:08.057Z,102501.70
2018-12-25T04:55:33.812Z,102503.41
2018-12-25T04:57:59.583Z,102500.96
2018-12-25T05:00:25.334Z,102506.69
2018-12-25T05:02:51.105Z,102504.87
2018-12-25T05:05:16.864Z,102511.58
2018-12-25T05:07:42.650Z,102515.70
2018-12-25T05:10:08.402Z,102515.33
2018-12-25T05:12:34.187Z,102510.97
2018-12-25T05:14:59.938Z,102516.06
2018-12-25T05:17:25.714Z,102512.65
2018-12-25T05:19:51.481Z,102512.41
2018-12-25T05:22:17.256Z,102514.12
2018-12-25T05:24:43.015Z,102525.80
2018-12-25T05:27:08.780Z,102528.48
2018-12-25T05:29:34.556Z,102532.41
2018-12-25T05:32:00.317Z,102529.36
2018-12-25T05:34:26.084Z,102533.24
2018-12-25T05:36:51.851Z,102534.95
2018-12-25T05:39:17.630Z,102528.63
2018-12-25T05:41:43.391Z,102511.07
2018-12-25T05:44:09.163Z,102497.68
2018-12-25T05:46:34.925Z,102499.62
2018-12-25T05:49:00.700Z,102503.77
2018-12-25T05:51:26.456Z,102501.33
2018-12-25T05:53:52.247Z,102503.03
2018-12-25T05:56:18.015Z,102522.89
2018-12-25T05:58:43.781Z,102524.09
2018-12-25T06:01:09.540Z,102521.78
2018-12-25T06:03:35.321Z,102524.97
2018-12-25T06:06:01.089Z,102525.70
2018-12-25T06:08:26.860Z,102530.80
2018-12-25T06:10:52.638Z,102521.05
2018-12-25T06:13:18.405Z,102507.29
2018-12-25T06:15:44.185Z,102494.16
2018-12-25T06:18:09.953Z,102512.91
2018-12-25T06:20:35.727Z,102515.45
2018-12-25T06:23:01.483Z,102529.59
2018-12-25T06:25:27.255Z,102535.55
2018-12-25T06:27:53.013Z,102535.45
2018-12-25T06:30:18.795Z,102539.34
2018-12-25T06:32:44.553Z,102543.36
2018-12-25T06:35:10.321Z,102539.47
2018-12-25T06:37:36.073Z,102533.02
2018-12-25T06:42:56.101Z,102534.22
2018-12-25T06:45:21.886Z,102524.47
2018-12-25T06:47:47.641Z,102524.47
2018-12-25T06:50:13.446Z,102521.32
2018-12-25T06:52:39.201Z,102522.16
2018-12-25T06:55:04.968Z,102528.02
2018-12-25T06:57:30.728Z,102523.87
2018-12-25T06:59:56.506Z,102522.76
2018-12-25T07:02:22.274Z,102516.80
2018-12-25T07:04:48.154Z,102507.31
2018-12-25T07:07:13.923Z,102519.38
2018-12-25T07:09:39.685Z,102516.33
2018-12-25T07:12:05.474Z,102509.13
2018-12-25T07:14:31.220Z,102508.28
2018-12-25T07:16:56.988Z,102511.33
2018-12-25T07:19:22.741Z,102498.16
2018-12-25T07:21:48.512Z,102493.55
2018-12-25T07:24:14.275Z,102503.39
2018-12-25T07:26:40.050Z,102508.66
2018-12-25T07:29:05.819Z,102503.39
2018-12-25T07:31:31.595Z,102503.53
2018-12-25T07:33:57.353Z,102494.38
2018-12-25T07:36:23.136Z,102486.11
2018-12-25T07:38:48.896Z,102482.45
2018-12-25T07:41:14.665Z,102482.56
2018-12-25T07:43:40.431Z,102489.89
2018-12-25T07:46:06.198Z,102497.30
2018-12-25T07:48:31.965Z,102492.94
2018-12-25T07:50:57.746Z,102495.98
2018-12-25T07:53:23.538Z,102493.17
2018-12-25T07:55:49.306Z,102490.00
2018-12-25T07:58:15.075Z,102485.73
2018-12-25T08:00:40.844Z,102478.43
2018-12-25T08:03:06.594Z,102477.92
2018-12-25T08:05:32.345Z,102474.17
2018-12-25T08:07:58.113Z,102478.42
2018-12-25T08:10:23.878Z,102482.44
2018-12-25T08:12:49.661Z,102501.57
2018-12-25T08:15:15.426Z,102494.36
2018-12-25T08:17:41.200Z,102478.17
2018-12-25T08:20:06.960Z,102493.75
2018-12-25T08:22:32.744Z,102485.60
2018-12-25T08:24:58.504Z,102482.41
2018-12-25T08:27:24.286Z,102485.59
2018-12-25T08:29:50.050Z,102481.80
2018-12-25T08:32:15.831Z,102485.31
2018-12-25T08:34:41.587Z,102478.00
2018-12-25T08:37:07.362Z,102483.37
2018-12-25T08:39:33.121Z,102485.20
2018-12-25T08:41:58.917Z,102485.42
2018-12-25T08:44:24.670Z,102495.92
2018-12-25T08:46:50.448Z,102490.92
2018-12-25T08:49:16.209Z,102502.75
2018-12-25T08:51:42.004Z,102494.19
2018-12-25T08:54:07.783Z,102495.05
2018-12-25T08:56:33.545Z,102489.69
2018-12-25T08:58:59.319Z,102500.05
2018-12-25T09:01:25.073Z,102502.23
2018-12-25T09:03:50.845Z,102497.73
2018-12-25T09:06:16.603Z,102497.09
2018-12-25T09:08:42.371Z,102497.59
2018-12-25T09:11:08.127Z,102488.58
2018-12-25T09:13:33.894Z,102498.69
2018-12-25T09:15:59.680Z,102500.50
2018-12-25T09:18:25.456Z,102498.05
2018-12-25T09:20:51.213Z,102471.71
2018-12-25T09:23:16.991Z,102469.23
2018-12-25T09:25:42.777Z,102465.46
2018-12-25T09:28:08.555Z,102467.64
2018-12-25T09:30:34.323Z,102479.50
2018-12-25T09:33:00.109Z,102486.93
2018-12-25T09:35:25.865Z,102497.05
2018-12-25T09:37:51.636Z,102494.95
2018-12-25T09:40:17.393Z,102490.06
2018-12-25T09:42:43.170Z,102488.86
2018-12-25T09:45:08.928Z,102488.25
2018-12-25T09:47:34.682Z,102479.08
2018-12-25T09:50:00.461Z,102476.77
2018-12-25T09:52:26.225Z,102486.16
2018-12-25T09:54:52.019Z,102479.81
2018-12-25T09:57:17.782Z,102495.30
2018-12-25T09:59:43.652Z,102498.95
2018-12-25T10:02:09.424Z,102504.33
2018-12-25T10:04:35.190Z,102518.72
2018-12-25T10:07:00.949Z,102528.09
2018-12-25T10:09:26.723Z,102526.89
2018-12-25T10:11:52.479Z,102519.20
2018-12-25T10:14:18.253Z,102510.89
2018-12-25T10:16:44.009Z,102503.20
2018-12-25T10:19:09.785Z,102496.86
2018-12-25T10:21:35.539Z,102498.31
2018-12-25T10:24:01.325Z,102501.11
2018-12-25T10:26:27.082Z,102501.11
2018-12-25T10:28:52.860Z,102503.18
2018-12-25T10:31:18.627Z,102496.22
2018-12-25T10:33:44.407Z,102499.52
2018-12-25T10:36:10.165Z,102486.35
2018-12-25T10:38:35.939Z,102485.92
2018-12-25T10:41:01.699Z,102491.33
2018-12-25T10:43:27.457Z,102492.67
2018-12-25T10:45:53.228Z,102491.77
2018-12-25T10:48:18.981Z,102493.98
2018-12-25T10:50:44.759Z,102488.61
2018-12-25T10:53:10.539Z,102493.83
2018-12-25T10:55:36.326Z,102477.26
2018-12-25T10:58:02.083Z,102478.96
2018-12-25T11:01:09.531Z,102479.10
2018-12-25T11:03:35.299Z,102475.66
2018-12-25T11:06:01.072Z,102477.33
2018-12-25T11:08:26.828Z,102475.23
2018-12-25T11:10:52.590Z,102471.85
2018-12-25T11:13:18.351Z,102455.23
2018-12-25T11:15:44.138Z,102458.78
2018-12-25T11:18:10.143Z,102467.53
2018-12-25T11:20:35.921Z,102464.77
2018-12-25T11:23:01.680Z,102458.53
2018-12-25T11:25:27.454Z,102456.97
2018-12-25T11:27:53.212Z,102454.77
2018-12-25T11:30:18.985Z,102461.47
2018-12-25T11:32:44.859Z,102452.33
2018-12-25T11:35:10.631Z,102450.84
2018-12-25T11:37:36.392Z,102448.05
2018-12-25T11:40:02.170Z,102447.69
2018-12-25T11:42:27.927Z,102442.42
2018-12-25T11:44:53.695Z,102447.08
2018-12-25T11:47:19.467Z,102442.94
2018-12-25T11:49:45.240Z,102442.67
2018-12-25T11:52:10.990Z,102447.39
2018-12-25T11:54:36.796Z,102446.70
2018-12-25T11:57:02.591Z,102445.25
2018-12-25T11:59:28.369Z,102450.27
2018-12-25T12:01:54.151Z,102449.25
2018-12-25T12:04:19.918Z,102460.02
2018-12-25T12:06:45.694Z,102456.10
2018-12-25T12:09:11.454Z,102466.59
2018-12-25T12:11:37.222Z,102463.94
2018-12-25T12:14:03.086Z,102465.86
2018-12-25T12:16:28.862Z,102463.80
2018-12-25T12:18:54.618Z,102466.73
2018-12-25T12:21:20.386Z,102456.11
2018-12-25T12:23:46.157Z,102452.22
2018-12-25T12:26:11.923Z,102457.81
2018-12-25T12:29:19.388Z,102453.20
2018-12-25T12:31:45.161Z,102463.72
2018-12-25T12:34:10.914Z,102456.25
2018-12-25T12:36:36.686Z,102467.09
2018-12-25T12:42:29.525Z,102457.95
2018-12-25T12:44:55.578Z,102461.25
2018-12-25T12:47:21.349Z,102473.08
2018-12-25T12:49:47.179Z,102466.98
2018-12-25T12:52:13.009Z,102474.20
2018-12-25T12:54:38.767Z,102479.80
2018-12-25T12:59:58.748Z,102476.53
2018-12-25T13:02:24.526Z,102490.78
2018-12-25T13:04:50.280Z,102486.39
2018-12-25T13:07:16.056Z,102481.28
2018-12-25T13:09:41.813Z,102429.02
2018-12-25T13:12:07.608Z,102483.34
2018-12-25T13:14:33.368Z,102485.42
2018-12-25T13:16:59.135Z,102490.78
2018-12-25T13:19:24.889Z,102486.65
2018-12-25T13:21:50.661Z,102497.06
2018-12-25T13:24:16.481Z,102485.31
2018-12-25T13:26:42.206Z,102499.59
2018-12-25T13:29:08.810Z,102494.84
2018-12-25T13:31:35.158Z,102497.06
2018-12-25T13:34:00.987Z,102432.45
2018-12-25T13:36:26.758Z,102493.87
2018-12-25T13:38:52.519Z,102496.80
2018-12-25T13:41:18.289Z,102492.70
2018-12-25T13:46:52.049Z,102493.17
2018-12-25T13:49:19.436Z,102500.75
2018-12-25T13:51:45.220Z,102497.20
2018-12-25T13:54:24.070Z,102505.50
2018-12-25T13:56:49.860Z,102505.50
2018-12-25T13:59:15.610Z,102504.16
2018-12-25T14:01:41.394Z,102503.69
2018-12-25T14:04:07.153Z,102513.08
2018-12-25T14:06:32.928Z,102499.77
2018-12-25T14:08:58.694Z,102503.71
2018-12-25T14:11:24.459Z,102514.08
2018-12-25T14:13:50.234Z,102495.52
2018-12-25T14:16:15.995Z,102492.25
2018-12-25T14:18:41.760Z,102487.86
2018-12-25T14:21:07.530Z,102486.77
2018-12-25T14:23:33.304Z,102489.95
2018-12-25T14:25:59.067Z,102503.01
2018-12-25T14:28:24.848Z,102487.02
2018-12-25T14:30:50.614Z,102478.97
2018-12-25T14:33:16.390Z,102487.02
2018-12-25T14:35:42.144Z,102481.03
2018-12-25T14:38:07.912Z,102492.16
2018-12-25T14:40:33.672Z,102487.30
2018-12-25T14:42:59.435Z,102489.37
2018-12-25T14:45:25.202Z,102476.81
2018-12-25T14:47:50.973Z,102478.16
2018-12-25T14:50:16.734Z,102477.17
2018-12-25T14:52:42.503Z,102463.90
2018-12-25T14:55:08.285Z,102474.34
2018-12-25T14:57:34.051Z,102465.32
2018-12-25T14:59:59.807Z,102468.76
2018-12-25T15:02:25.571Z,102459.51
2018-12-25T15:04:51.336Z,102459.51
2018-12-25T15:07:17.134Z,102474.88
2018-12-25T15:09:42.999Z,102472.19
2018-12-25T15:12:08.767Z,102480.85
2018-12-25T15:14:34.535Z,102475.13
2018-12-25T15:17:00.292Z,102471.09
2018-12-25T15:19:26.060Z,102473.39
2018-12-25T15:21:51.829Z,102474.95
2018-12-25T15:24:17.600Z,102475.60
2018-12-25T15:26:43.364Z,102475.48
2018-12-25T15:29:09.139Z,102472.92
2018-12-25T15:31:34.899Z,102478.03
2018-12-25T15:34:00.665Z,102472.44
2018-12-25T15:36:26.436Z,102472.19
2018-12-25T15:38:52.206Z,102467.55
2018-12-25T15:41:17.970Z,102466.12
2018-12-25T15:43:43.749Z,102475.73
2018-12-25T15:46:09.523Z,102475.25
2018-12-25T15:48:35.289Z,102474.94
2018-12-25T15:51:01.050Z,102471.39
2018-12-25T15:53:26.831Z,102473.70
2018-12-25T15:55:52.593Z,102474.94
2018-12-25T15:58:18.358Z,102472.26
2018-12-25T16:00:44.135Z,102489.06
2018-12-25T16:03:09.885Z,102482.50
2018-12-25T16:05:35.664Z,102486.38
2018-12-25T16:08:01.429Z,102494.80
2018-12-25T16:10:27.206Z,102491.75
2018-12-25T16:12:52.972Z,102494.80
2018-12-25T16:15:18.746Z,102494.70
2018-12-25T16:17:44.502Z,102485.30
2018-12-25T16:20:10.369Z,102480.77
2018-12-25T16:22:36.147Z,102482.98
2018-12-25T16:25:01.933Z,102476.89
2018-12-25T16:27:27.687Z,102471.16
2018-12-25T16:29:53.450Z,102473.70
2018-12-25T16:32:19.236Z,102471.16
2018-12-25T16:34:44.985Z,102467.00
2018-12-25T16:37:10.758Z,102469.21
2018-12-25T16:39:36.516Z,102464.31
2018-12-25T16:42:02.288Z,102462.00
2018-12-25T16:44:28.065Z,102459.56
2018-12-25T16:46:53.828Z,102462.14
2018-12-25T16:49:19.577Z,102461.27
2018-12-25T16:51:45.368Z,102457.25
2018-12-25T16:54:11.135Z,102461.16
2018-12-25T16:56:36.909Z,102462.00
2018-12-25T16:59:02.675Z,102467.24
2018-12-25T17:01:28.460Z,102463.94
2018-12-25T17:03:54.228Z,102459.69
2018-12-25T17:06:20.044Z,102456.50
2018-12-25T17:08:45.794Z,102462.52
2018-12-25T17:11:11.575Z,102462.62
2018-12-25T17:13:37.354Z,102464.23
2018-12-25T17:16:03.109Z,102465.20
2018-12-25T17:18:28.882Z,102468.84
2018-12-25T17:20:54.715Z,102472.36
2018-12-25T17:23:20.520Z,102458.12
2018-12-25T17:26:06.164Z,102456.05
2018-12-25T17:28:31.936Z,102456.05
2018-12-25T17:30:57.687Z,102464.56
2018-12-25T17:33:23.460Z,102465.44
2018-12-25T17:35:49.221Z,102464.69
2018-12-25T17:38:14.999Z,102465.55
2018-12-25T17:40:40.779Z,102457.98
2018-12-25T17:43:26.439Z,102455.78
2018-12-25T17:45:52.199Z,102455.78
2018-12-25T17:48:17.988Z,102468.30
2018-12-25T17:50:43.748Z,102461.95
2018-12-25T17:53:09.520Z,102472.08
2018-12-25T17:55:35.295Z,102469.39
2018-12-25T17:58:01.082Z,102474.90
2018-12-25T18:00:26.854Z,102474.62
2018-12-25T18:02:52.618Z,102481.44
2018-12-25T18:05:18.404Z,102478.98
2018-12-25T18:07:44.258Z,102471.91
2018-12-25T18:10:10.049Z,102469.74
2018-12-25T18:12:35.814Z,102478.90
2018-12-25T18:15:01.587Z,102480.34
2018-12-25T18:17:27.345Z,102474.14
2018-12-25T18:19:53.116Z,102462.69
2018-12-25T18:22:18.869Z,102468.27
2018-12-25T18:24:44.637Z,102476.83
2018-12-25T18:27:10.398Z,102474.03
2018-12-25T18:29:36.245Z,102481.58
2018-12-25T18:32:02.113Z,102474.14
2018-12-25T18:34:27.914Z,102470.73
2018-12-25T18:36:53.681Z,102466.34
2018-12-25T18:39:19.496Z,102474.25
2018-12-25T18:41:45.255Z,102468.05
2018-12-25T18:44:11.069Z,102470.37
2018-12-25T18:46:36.823Z,102467.33
2018-12-25T18:49:02.573Z,102465.13
2018-12-25T18:51:28.349Z,102472.58
2018-12-25T18:53:54.113Z,102471.94
2018-12-25T18:56:19.902Z,102471.69
2018-12-25T18:58:45.771Z,102473.53
2018-12-25T19:01:11.543Z,102477.30
2018-12-25T19:03:37.300Z,102471.59
2018-12-25T19:06:03.070Z,102468.83
2018-12-25T19:08:28.826Z,102469.30
2018-12-25T19:10:54.595Z,102457.13
2018-12-25T19:13:20.349Z,102473.05
2018-12-25T19:15:46.220Z,102469.03
2018-12-25T19:18:11.981Z,102471.23
2018-12-25T19:20:37.763Z,102465.88
2018-12-25T19:23:23.407Z,102460.25
2018-12-25T19:25:49.182Z,102460.25
2018-12-25T19:28:14.945Z,102459.39
2018-12-25T19:30:40.716Z,102457.07
2018-12-25T19:33:06.487Z,102453.30
2018-12-25T19:35:32.248Z,102455.73
2018-12-25T19:37:58.026Z,102469.39
2018-12-25T19:40:23.795Z,102460.61
2018-12-25T19:42:49.570Z,102455.86
2018-12-25T19:45:15.438Z,102456.25
2018-12-25T19:47:41.242Z,102464.19
2018-12-25T19:50:06.993Z,102462.34
2018-12-25T19:52:32.782Z,102467.84
2018-12-25T19:54:58.551Z,102462.70
2018-12-25T19:57:24.330Z,102464.52
2018-12-25T19:59:50.089Z,102456.84
2018-12-25T20:02:15.865Z,102457.23
2018-12-25T20:08:34.712Z,102458.09
2018-12-25T20:12:00.140Z,102456.16
2018-12-25T20:15:05.662Z,102447.75
2018-12-25T20:18:11.211Z,102452.98
2018-12-25T20:21:36.622Z,102445.91
2018-12-25T20:24:44.062Z,102441.89
2018-12-25T20:28:13.469Z,102445.91
2018-12-25T20:38:01.625Z,102446.64
2018-12-25T20:41:07.153Z,102439.80
2018-12-25T20:44:12.697Z,102438.34
2018-12-25T20:47:18.226Z,102440.77
2018-12-25T20:53:38.955Z,102440.66
2018-12-25T20:57:04.387Z,102434.41
2018-12-25T21:00:09.946Z,102426.36
2018-12-25T21:03:15.454Z,102442.09
2018-12-25T21:06:21.010Z,102434.18
2018-12-25T21:09:26.553Z,102427.98
2018-12-25T21:16:01.061Z,102427.34
2018-12-25T21:19:08.482Z,102432.11
2018-12-25T21:22:33.915Z,102428.23
2018-12-25T21:25:59.367Z,102437.59
2018-12-25T21:29:06.818Z,102431.50
2018-12-25T21:35:27.780Z,102434.88
2018-12-25T21:37:53.632Z,102431.84
2018-12-25T21:40:19.499Z,102422.06
2018-12-25T21:42:45.261Z,102423.91
2018-12-25T21:45:11.182Z,102427.06
2018-12-25T21:51:04.032Z,102424.27
2018-12-25T21:53:29.881Z,102429.10
2018-12-25T21:55:55.668Z,102424.13
2018-12-25T21:58:21.543Z,102432.17
2018-12-25T22:00:47.314Z,102424.13
2018-12-25T22:03:13.074Z,102415.61
2018-12-25T22:05:38.857Z,102414.96
2018-12-25T22:08:04.625Z,102411.91
2018-12-25T22:10:30.391Z,102400.95
2018-12-25T22:12:56.167Z,102404.52
2018-12-25T22:15:21.972Z,102404.15
2018-12-25T22:17:47.703Z,102405.48
2018-12-25T22:20:33.342Z,102410.97
2018-12-25T22:22:59.124Z,102409.04
2018-12-25T22:25:27.336Z,102404.79
2018-12-25T22:27:52.557Z,102406.23
2018-12-25T22:30:18.316Z,102413.56
2018-12-25T22:32:44.085Z,102416.16
2018-12-25T22:35:09.843Z,102416.52
2018-12-25T22:37:35.627Z,102419.23
2018-12-25T22:43:28.559Z,102414.25
2018-12-25T22:45:54.314Z,102405.84
2018-12-25T22:48:20.544Z,102407.30
2018-12-25T22:50:46.324Z,102405.73
2018-12-25T22:53:19.353Z,102406.34
2018-12-25T22:55:45.122Z,102411.34
2018-12-25T22:58:10.893Z,102405.02
2018-12-25T23:00:36.759Z,102409.87
2018-12-25T23:03:02.540Z,102406.14
2018-12-25T23:08:35.552Z,102399.19
2018-12-25T23:11:01.312Z,102412.58
2018-12-25T23:13:27.087Z,102410.52
2018-12-25T23:15:52.853Z,102418.42
2018-12-25T23:18:18.647Z,102409.80
2018-12-25T23:20:44.401Z,102412.11
2018-12-25T23:23:10.171Z,102406.86
2018-12-25T23:25:44.447Z,102407.20
2018-12-25T23:28:03.609Z,102399.16
2018-12-25T23:30:29.375Z,102394.16
2018-12-25T23:32:55.137Z,102395.77
2018-12-25T23:35:20.910Z,102387.95
2018-12-25T23:37:46.755Z,102374.41
2018-12-25T23:40:12.502Z,102373.21
2018-12-25T23:42:38.255Z,102366.73
2018-12-25T23:45:45.702Z,102368.21
2018-12-25T23:48:11.467Z,102365.39
2018-12-25T23:51:18.919Z,102353.22
2018-12-25T23:53:44.692Z,102348.33
2018-12-25T23:56:10.464Z,102340.28
2018-12-25T23:58:36.230Z,102344.28
